sensor_id;sensor_type;location;lat;lon;timestamp;P1;durP1;ratioP1;P2;durP2;ratioP2
22894;SDS011;11614;52.494;6.976;2022-08-11T00:01:49;6.47;;;5.53;;
22894;SDS011;11614;52.494;6.976;2022-08-11T00:04:18;10.37;;;5.60;;
22894;SDS011;11614;52.494;6.976;2022-08-11T00:06:48;7.50;;;5.67;;
22894;SDS011;11614;52.494;6.976;2022-08-11T00:09:16;5.07;;;4.33;;
22894;SDS011;11614;52.494;6.976;2022-08-11T00:11:55;6.50;;;4.60;;
22894;SDS011;11614;52.494;6.976;2022-08-11T00:14:23;5.83;;;4.73;;
22894;SDS011;11614;52.494;6.976;2022-08-11T00:16:56;5.67;;;4.53;;
22894;SDS011;11614;52.494;6.976;2022-08-11T00:19:23;9.43;;;5.17;;
22894;SDS011;11614;52.494;6.976;2022-08-11T00:21:51;7.90;;;5.33;;
22894;SDS011;11614;52.494;6.976;2022-08-11T00:24:19;8.40;;;7.67;;
22894;SDS011;11614;52.494;6.976;2022-08-11T00:26:47;6.13;;;5.30;;
22894;SDS011;11614;52.494;6.976;2022-08-11T00:29:14;17.37;;;16.33;;
22894;SDS011;11614;52.494;6.976;2022-08-11T00:32:00;9.03;;;6.27;;
22894;SDS011;11614;52.494;6.976;2022-08-11T00:34:30;8.10;;;5.57;;
22894;SDS011;11614;52.494;6.976;2022-08-11T00:39:35;8.00;;;6.30;;
22894;SDS011;11614;52.494;6.976;2022-08-11T00:56:01;7.40;;;6.03;;
22894;SDS011;11614;52.494;6.976;2022-08-11T01:15:27;9.33;;;5.80;;
22894;SDS011;11614;52.494;6.976;2022-08-11T01:35:38;6.93;;;6.23;;
22894;SDS011;11614;52.494;6.976;2022-08-11T01:38:25;8.50;;;6.63;;
22894;SDS011;11614;52.494;6.976;2022-08-11T01:50:16;7.83;;;6.40;;
22894;SDS011;11614;52.494;6.976;2022-08-11T01:58:49;10.27;;;7.30;;
22894;SDS011;11614;52.494;6.976;2022-08-11T02:04:16;9.57;;;7.60;;
22894;SDS011;11614;52.494;6.976;2022-08-11T02:11:54;8.53;;;7.57;;
22894;SDS011;11614;52.494;6.976;2022-08-11T02:17:22;12.33;;;7.83;;
22894;SDS011;11614;52.494;6.976;2022-08-11T02:20:22;11.60;;;8.20;;
22894;SDS011;11614;52.494;6.976;2022-08-11T02:26:06;9.40;;;7.70;;
22894;SDS011;11614;52.494;6.976;2022-08-11T02:31:49;10.43;;;8.20;;
22894;SDS011;11614;52.494;6.976;2022-08-11T02:34:52;12.20;;;8.40;;
22894;SDS011;11614;52.494;6.976;2022-08-11T02:45:02;11.70;;;9.07;;
22894;SDS011;11614;52.494;6.976;2022-08-11T02:50:55;13.00;;;9.13;;
22894;SDS011;11614;52.494;6.976;2022-08-11T02:53:46;11.23;;;8.67;;
22894;SDS011;11614;52.494;6.976;2022-08-11T03:10:07;14.00;;;9.70;;
22894;SDS011;11614;52.494;6.976;2022-08-11T03:13:07;13.73;;;10.10;;
22894;SDS011;11614;52.494;6.976;2022-08-11T03:16:15;13.47;;;10.47;;
22894;SDS011;11614;52.494;6.976;2022-08-11T03:19:09;17.60;;;11.30;;
22894;SDS011;11614;52.494;6.976;2022-08-11T03:35:01;26.87;;;16.77;;
22894;SDS011;11614;52.494;6.976;2022-08-11T03:43:06;16.00;;;12.23;;
22894;SDS011;11614;52.494;6.976;2022-08-11T03:45:54;18.00;;;12.83;;
22894;SDS011;11614;52.494;6.976;2022-08-11T03:48:47;13.77;;;11.30;;
22894;SDS011;11614;52.494;6.976;2022-08-11T03:51:50;17.30;;;13.40;;
22894;SDS011;11614;52.494;6.976;2022-08-11T03:57:04;16.73;;;12.03;;
22894;SDS011;11614;52.494;6.976;2022-08-11T03:59:49;15.93;;;11.93;;
22894;SDS011;11614;52.494;6.976;2022-08-11T04:21:25;17.20;;;12.77;;
22894;SDS011;11614;52.494;6.976;2022-08-11T04:29:44;19.00;;;14.13;;
22894;SDS011;11614;52.494;6.976;2022-08-11T04:32:30;19.60;;;15.23;;
22894;SDS011;11614;52.494;6.976;2022-08-11T04:46:00;18.60;;;13.97;;
22894;SDS011;11614;52.494;6.976;2022-08-11T05:16:41;16.50;;;12.37;;
22894;SDS011;11614;52.494;6.976;2022-08-11T05:19:44;16.43;;;12.80;;
22894;SDS011;11614;52.494;6.976;2022-08-11T05:22:29;13.67;;;10.93;;
22894;SDS011;11614;52.494;6.976;2022-08-11T05:25:16;11.50;;;9.40;;
22894;SDS011;11614;52.494;6.976;2022-08-11T05:28:04;13.17;;;9.50;;
22894;SDS011;11614;52.494;6.976;2022-08-11T05:30:52;11.87;;;9.73;;
22894;SDS011;11614;52.494;6.976;2022-08-11T05:33:49;10.70;;;8.98;;
22894;SDS011;11614;52.494;6.976;2022-08-11T05:39:10;12.88;;;10.32;;
22894;SDS011;11614;52.494;6.976;2022-08-11T05:41:56;10.23;;;9.20;;
22894;SDS011;11614;52.494;6.976;2022-08-11T05:44:43;10.13;;;9.23;;
22894;SDS011;11614;52.494;6.976;2022-08-11T05:47:29;11.18;;;10.18;;
22894;SDS011;11614;52.494;6.976;2022-08-11T05:50:14;12.57;;;10.07;;
22894;SDS011;11614;52.494;6.976;2022-08-11T05:53:00;10.52;;;9.48;;
22894;SDS011;11614;52.494;6.976;2022-08-11T05:55:46;16.63;;;15.27;;
22894;SDS011;11614;52.494;6.976;2022-08-11T05:58:36;17.27;;;15.90;;
22894;SDS011;11614;52.494;6.976;2022-08-11T06:01:03;13.07;;;11.85;;
22894;SDS011;11614;52.494;6.976;2022-08-11T06:03:29;16.23;;;15.10;;
22894;SDS011;11614;52.494;6.976;2022-08-11T06:06:17;11.57;;;10.50;;
22894;SDS011;11614;52.494;6.976;2022-08-11T06:08:43;11.00;;;9.90;;
22894;SDS011;11614;52.494;6.976;2022-08-11T06:11:10;15.70;;;14.30;;
22894;SDS011;11614;52.494;6.976;2022-08-11T06:13:40;13.63;;;12.43;;
22894;SDS011;11614;52.494;6.976;2022-08-11T06:16:08;14.43;;;13.35;;
22894;SDS011;11614;52.494;6.976;2022-08-11T06:18:35;18.65;;;17.35;;
22894;SDS011;11614;52.494;6.976;2022-08-11T06:21:01;14.98;;;13.88;;
22894;SDS011;11614;52.494;6.976;2022-08-11T06:23:33;14.75;;;13.43;;
22894;SDS011;11614;52.494;6.976;2022-08-11T06:25:59;25.48;;;24.00;;
22894;SDS011;11614;52.494;6.976;2022-08-11T06:28:32;41.30;;;39.13;;
22894;SDS011;11614;52.494;6.976;2022-08-11T06:31:10;42.95;;;40.72;;
22894;SDS011;11614;52.494;6.976;2022-08-11T06:33:38;29.55;;;27.90;;
22894;SDS011;11614;52.494;6.976;2022-08-11T06:36:12;29.42;;;27.85;;
22894;SDS011;11614;52.494;6.976;2022-08-11T06:41:23;26.83;;;25.02;;
22894;SDS011;11614;52.494;6.976;2022-08-11T06:46:28;22.98;;;21.70;;
22894;SDS011;11614;52.494;6.976;2022-08-11T06:48:54;52.88;;;50.42;;
22894;SDS011;11614;52.494;6.976;2022-08-11T06:51:21;89.93;;;86.18;;
22894;SDS011;11614;52.494;6.976;2022-08-11T06:53:48;23.85;;;22.33;;
22894;SDS011;11614;52.494;6.976;2022-08-11T06:56:15;35.53;;;33.83;;
22894;SDS011;11614;52.494;6.976;2022-08-11T06:59:05;51.53;;;48.95;;
22894;SDS011;11614;52.494;6.976;2022-08-11T07:04:22;28.10;;;26.20;;
22894;SDS011;11614;52.494;6.976;2022-08-11T07:10:20;46.05;;;43.80;;
22894;SDS011;11614;52.494;6.976;2022-08-11T07:13:07;20.75;;;19.55;;
22894;SDS011;11614;52.494;6.976;2022-08-11T07:15:53;48.70;;;46.60;;
22894;SDS011;11614;52.494;6.976;2022-08-11T07:18:22;31.55;;;29.83;;
22894;SDS011;11614;52.494;6.976;2022-08-11T07:24:07;24.48;;;23.13;;
22894;SDS011;11614;52.494;6.976;2022-08-11T07:26:55;24.15;;;22.92;;
22894;SDS011;11614;52.494;6.976;2022-08-11T07:29:41;32.38;;;30.30;;
22894;SDS011;11614;52.494;6.976;2022-08-11T07:33:08;27.80;;;26.30;;
22894;SDS011;11614;52.494;6.976;2022-08-11T07:35:14;46.47;;;44.38;;
22894;SDS011;11614;52.494;6.976;2022-08-11T07:37:41;21.17;;;20.05;;
22894;SDS011;11614;52.494;6.976;2022-08-11T07:40:08;31.33;;;29.95;;
22894;SDS011;11614;52.494;6.976;2022-08-11T07:42:35;22.55;;;20.90;;
22894;SDS011;11614;52.494;6.976;2022-08-11T07:45:03;28.05;;;26.50;;
22894;SDS011;11614;52.494;6.976;2022-08-11T07:47:49;16.88;;;15.88;;
22894;SDS011;11614;52.494;6.976;2022-08-11T07:50:38;28.90;;;27.50;;
22894;SDS011;11614;52.494;6.976;2022-08-11T07:53:24;18.40;;;17.35;;
22894;SDS011;11614;52.494;6.976;2022-08-11T07:55:51;12.68;;;11.98;;
22894;SDS011;11614;52.494;6.976;2022-08-11T07:58:20;16.63;;;15.73;;
22894;SDS011;11614;52.494;6.976;2022-08-11T08:01:05;10.15;;;9.55;;
22894;SDS011;11614;52.494;6.976;2022-08-11T08:03:50;23.42;;;22.13;;
22894;SDS011;11614;52.494;6.976;2022-08-11T08:06:35;16.35;;;15.52;;
22894;SDS011;11614;52.494;6.976;2022-08-11T08:09:21;14.85;;;13.98;;
22894;SDS011;11614;52.494;6.976;2022-08-11T08:12:06;19.77;;;18.70;;
22894;SDS011;11614;52.494;6.976;2022-08-11T08:14:52;10.15;;;9.30;;
22894;SDS011;11614;52.494;6.976;2022-08-11T08:17:36;14.38;;;13.68;;
22894;SDS011;11614;52.494;6.976;2022-08-11T08:20:25;17.60;;;16.48;;
22894;SDS011;11614;52.494;6.976;2022-08-11T08:22:53;31.10;;;29.63;;
22894;SDS011;11614;52.494;6.976;2022-08-11T08:28:03;30.88;;;29.25;;
22894;SDS011;11614;52.494;6.976;2022-08-11T08:30:30;19.95;;;18.95;;
22894;SDS011;11614;52.494;6.976;2022-08-11T08:35:40;50.17;;;47.88;;
22894;SDS011;11614;52.494;6.976;2022-08-11T08:38:08;19.30;;;18.38;;
22894;SDS011;11614;52.494;6.976;2022-08-11T08:40:34;29.23;;;28.02;;
22894;SDS011;11614;52.494;6.976;2022-08-11T08:43:06;109.88;;;105.75;;
22894;SDS011;11614;52.494;6.976;2022-08-11T08:45:34;38.85;;;37.25;;
22894;SDS011;11614;52.494;6.976;2022-08-11T08:48:02;40.45;;;38.38;;
22894;SDS011;11614;52.494;6.976;2022-08-11T08:50:33;45.33;;;43.30;;
22894;SDS011;11614;52.494;6.976;2022-08-11T08:53:25;40.85;;;39.00;;
22894;SDS011;11614;52.494;6.976;2022-08-11T08:55:56;57.30;;;54.90;;
22894;SDS011;11614;52.494;6.976;2022-08-11T08:58:23;119.80;;;115.18;;
22894;SDS011;11614;52.494;6.976;2022-08-11T09:00:50;91.30;;;87.63;;
22894;SDS011;11614;52.494;6.976;2022-08-11T09:03:16;49.35;;;47.40;;
22894;SDS011;11614;52.494;6.976;2022-08-11T09:05:43;47.88;;;45.70;;
22894;SDS011;11614;52.494;6.976;2022-08-11T09:08:09;43.28;;;41.28;;
22894;SDS011;11614;52.494;6.976;2022-08-11T09:10:36;37.33;;;35.85;;
22894;SDS011;11614;52.494;6.976;2022-08-11T09:13:03;22.20;;;20.98;;
22894;SDS011;11614;52.494;6.976;2022-08-11T09:15:32;25.00;;;23.48;;
22894;SDS011;11614;52.494;6.976;2022-08-11T09:18:00;33.88;;;32.47;;
22894;SDS011;11614;52.494;6.976;2022-08-11T09:20:35;71.70;;;68.97;;
22894;SDS011;11614;52.494;6.976;2022-08-11T09:23:04;14.60;;;13.90;;
22894;SDS011;11614;52.494;6.976;2022-08-11T09:25:50;12.73;;;11.93;;
22894;SDS011;11614;52.494;6.976;2022-08-11T09:28:36;17.08;;;16.33;;
22894;SDS011;11614;52.494;6.976;2022-08-11T09:31:02;21.92;;;20.90;;
22894;SDS011;11614;52.494;6.976;2022-08-11T09:33:28;25.70;;;24.38;;
22894;SDS011;11614;52.494;6.976;2022-08-11T09:35:55;26.52;;;25.40;;
22894;SDS011;11614;52.494;6.976;2022-08-11T09:38:21;29.25;;;28.10;;
22894;SDS011;11614;52.494;6.976;2022-08-11T09:41:07;27.70;;;26.55;;
22894;SDS011;11614;52.494;6.976;2022-08-11T09:43:35;46.03;;;43.78;;
22894;SDS011;11614;52.494;6.976;2022-08-11T09:46:25;58.25;;;56.00;;
22894;SDS011;11614;52.494;6.976;2022-08-11T09:48:52;36.15;;;34.65;;
22894;SDS011;11614;52.494;6.976;2022-08-11T09:51:20;161.18;;;155.75;;
22894;SDS011;11614;52.494;6.976;2022-08-11T09:53:47;81.95;;;78.75;;
22894;SDS011;11614;52.494;6.976;2022-08-11T09:56:14;67.90;;;65.40;;
22894;SDS011;11614;52.494;6.976;2022-08-11T09:59:01;55.80;;;53.55;;
22894;SDS011;11614;52.494;6.976;2022-08-11T10:01:33;39.10;;;37.53;;
22894;SDS011;11614;52.494;6.976;2022-08-11T10:04:05;35.13;;;33.67;;
22894;SDS011;11614;52.494;6.976;2022-08-11T10:06:33;42.47;;;40.67;;
22894;SDS011;11614;52.494;6.976;2022-08-11T10:09:20;36.78;;;35.20;;
22894;SDS011;11614;52.494;6.976;2022-08-11T10:11:47;30.73;;;29.27;;
22894;SDS011;11614;52.494;6.976;2022-08-11T10:14:14;39.17;;;37.65;;
22894;SDS011;11614;52.494;6.976;2022-08-11T10:17:06;77.90;;;74.90;;
22894;SDS011;11614;52.494;6.976;2022-08-11T10:19:33;24.85;;;23.80;;
22894;SDS011;11614;52.494;6.976;2022-08-11T10:22:01;24.63;;;23.58;;
22894;SDS011;11614;52.494;6.976;2022-08-11T10:24:47;57.35;;;55.13;;
22894;SDS011;11614;52.494;6.976;2022-08-11T10:27:32;65.78;;;63.17;;
22894;SDS011;11614;52.494;6.976;2022-08-11T10:29:58;44.88;;;43.10;;
22894;SDS011;11614;52.494;6.976;2022-08-11T10:32:43;92.40;;;88.93;;
22894;SDS011;11614;52.494;6.976;2022-08-11T10:35:29;71.80;;;68.93;;
22894;SDS011;11614;52.494;6.976;2022-08-11T10:37:56;142.40;;;137.40;;
22894;SDS011;11614;52.494;6.976;2022-08-11T10:40:22;51.50;;;49.50;;
22894;SDS011;11614;52.494;6.976;2022-08-11T10:42:51;32.92;;;31.63;;
22894;SDS011;11614;52.494;6.976;2022-08-11T10:45:27;30.58;;;29.10;;
22894;SDS011;11614;52.494;6.976;2022-08-11T10:48:12;40.88;;;39.13;;
22894;SDS011;11614;52.494;6.976;2022-08-11T10:50:39;45.13;;;43.35;;
22894;SDS011;11614;52.494;6.976;2022-08-11T10:53:35;33.72;;;32.22;;
22894;SDS011;11614;52.494;6.976;2022-08-11T10:56:21;52.50;;;50.45;;
22894;SDS011;11614;52.494;6.976;2022-08-11T10:59:06;73.40;;;70.55;;
22894;SDS011;11614;52.494;6.976;2022-08-11T11:01:34;40.75;;;39.10;;
22894;SDS011;11614;52.494;6.976;2022-08-11T11:04:05;18.10;;;17.20;;
22894;SDS011;11614;52.494;6.976;2022-08-11T11:09:10;11.27;;;10.57;;
22894;SDS011;11614;52.494;6.976;2022-08-11T11:11:38;41.95;;;40.25;;
22894;SDS011;11614;52.494;6.976;2022-08-11T11:14:29;35.55;;;34.15;;
22894;SDS011;11614;52.494;6.976;2022-08-11T11:17:14;48.97;;;47.03;;
22894;SDS011;11614;52.494;6.976;2022-08-11T11:19:54;18.92;;;18.15;;
22894;SDS011;11614;52.494;6.976;2022-08-11T11:22:22;16.83;;;15.82;;
22894;SDS011;11614;52.494;6.976;2022-08-11T11:30:23;12.32;;;11.73;;
22894;SDS011;11614;52.494;6.976;2022-08-11T11:35:42;14.27;;;13.57;;
22894;SDS011;11614;52.494;6.976;2022-08-11T11:38:09;13.57;;;12.98;;
22894;SDS011;11614;52.494;6.976;2022-08-11T11:40:35;14.95;;;14.23;;
22894;SDS011;11614;52.494;6.976;2022-08-11T11:43:03;16.00;;;15.27;;
22894;SDS011;11614;52.494;6.976;2022-08-11T11:45:29;21.98;;;21.02;;
22894;SDS011;11614;52.494;6.976;2022-08-11T11:47:56;17.60;;;16.90;;
22894;SDS011;11614;52.494;6.976;2022-08-11T11:52:49;21.75;;;20.88;;
22894;SDS011;11614;52.494;6.976;2022-08-11T11:55:17;14.05;;;13.25;;
22894;SDS011;11614;52.494;6.976;2022-08-11T11:57:43;20.92;;;20.02;;
22894;SDS011;11614;52.494;6.976;2022-08-11T12:00:27;13.73;;;13.05;;
22894;SDS011;11614;52.494;6.976;2022-08-11T12:03:12;16.27;;;15.55;;
22894;SDS011;11614;52.494;6.976;2022-08-11T12:05:38;17.73;;;16.92;;
22894;SDS011;11614;52.494;6.976;2022-08-11T12:08:06;19.17;;;18.38;;
22894;SDS011;11614;52.494;6.976;2022-08-11T12:10:49;19.25;;;18.23;;
22894;SDS011;11614;52.494;6.976;2022-08-11T12:13:36;15.80;;;15.15;;
22894;SDS011;11614;52.494;6.976;2022-08-11T12:16:06;74.60;;;71.78;;
22894;SDS011;11614;52.494;6.976;2022-08-11T12:18:33;25.35;;;24.23;;
22894;SDS011;11614;52.494;6.976;2022-08-11T12:20:59;23.60;;;22.70;;
22894;SDS011;11614;52.494;6.976;2022-08-11T12:23:25;41.58;;;39.88;;
22894;SDS011;11614;52.494;6.976;2022-08-11T12:26:12;31.85;;;30.48;;
22894;SDS011;11614;52.494;6.976;2022-08-11T12:28:58;37.45;;;35.97;;
22894;SDS011;11614;52.494;6.976;2022-08-11T12:31:25;18.73;;;17.90;;
22894;SDS011;11614;52.494;6.976;2022-08-11T12:33:51;21.50;;;20.48;;
22894;SDS011;11614;52.494;6.976;2022-08-11T12:36:18;19.10;;;18.10;;
22894;SDS011;11614;52.494;6.976;2022-08-11T12:38:46;28.83;;;27.60;;
22894;SDS011;11614;52.494;6.976;2022-08-11T12:41:13;22.42;;;21.52;;
22894;SDS011;11614;52.494;6.976;2022-08-11T12:43:58;15.85;;;15.07;;
22894;SDS011;11614;52.494;6.976;2022-08-11T12:46:44;25.70;;;24.65;;
22894;SDS011;11614;52.494;6.976;2022-08-11T12:49:12;33.20;;;31.77;;
22894;SDS011;11614;52.494;6.976;2022-08-11T12:51:59;30.95;;;29.65;;
22894;SDS011;11614;52.494;6.976;2022-08-11T12:54:31;17.40;;;16.50;;
22894;SDS011;11614;52.494;6.976;2022-08-11T12:57:02;9.73;;;9.32;;
22894;SDS011;11614;52.494;6.976;2022-08-11T12:59:48;20.13;;;19.27;;
22894;SDS011;11614;52.494;6.976;2022-08-11T13:02:33;9.63;;;9.02;;
22894;SDS011;11614;52.494;6.976;2022-08-11T13:05:19;22.08;;;21.17;;
22894;SDS011;11614;52.494;6.976;2022-08-11T13:07:45;20.83;;;19.85;;
22894;SDS011;11614;52.494;6.976;2022-08-11T13:10:12;31.23;;;29.85;;
22894;SDS011;11614;52.494;6.976;2022-08-11T13:12:39;28.75;;;27.60;;
22894;SDS011;11614;52.494;6.976;2022-08-11T13:15:19;17.60;;;16.85;;
22894;SDS011;11614;52.494;6.976;2022-08-11T13:17:46;16.08;;;15.38;;
22894;SDS011;11614;52.494;6.976;2022-08-11T13:20:15;35.50;;;34.15;;
22894;SDS011;11614;52.494;6.976;2022-08-11T13:22:44;30.52;;;29.33;;
22894;SDS011;11614;52.494;6.976;2022-08-11T13:25:12;28.27;;;27.15;;
22894;SDS011;11614;52.494;6.976;2022-08-11T13:27:40;54.15;;;52.10;;
22894;SDS011;11614;52.494;6.976;2022-08-11T13:30:06;15.75;;;14.98;;
22894;SDS011;11614;52.494;6.976;2022-08-11T13:32:51;26.42;;;25.13;;
22894;SDS011;11614;52.494;6.976;2022-08-11T13:35:18;23.88;;;22.83;;
22894;SDS011;11614;52.494;6.976;2022-08-11T13:37:45;23.48;;;22.58;;
22894;SDS011;11614;52.494;6.976;2022-08-11T13:40:12;34.53;;;33.22;;
22894;SDS011;11614;52.494;6.976;2022-08-11T13:42:39;18.02;;;17.13;;
22894;SDS011;11614;52.494;6.976;2022-08-11T13:45:06;21.67;;;20.48;;
22894;SDS011;11614;52.494;6.976;2022-08-11T13:47:33;22.00;;;21.13;;
22894;SDS011;11614;52.494;6.976;2022-08-11T13:49:59;44.30;;;42.60;;
22894;SDS011;11614;52.494;6.976;2022-08-11T13:52:26;23.80;;;22.70;;
22894;SDS011;11614;52.494;6.976;2022-08-11T13:54:52;25.73;;;24.70;;
22894;SDS011;11614;52.494;6.976;2022-08-11T13:57:18;19.42;;;18.42;;
22894;SDS011;11614;52.494;6.976;2022-08-11T13:59:45;38.97;;;37.53;;
22894;SDS011;11614;52.494;6.976;2022-08-11T14:02:13;35.20;;;33.83;;
22894;SDS011;11614;52.494;6.976;2022-08-11T14:04:40;27.90;;;26.77;;
22894;SDS011;11614;52.494;6.976;2022-08-11T14:07:08;18.55;;;17.42;;
22894;SDS011;11614;52.494;6.976;2022-08-11T14:09:35;15.00;;;14.30;;
22894;SDS011;11614;52.494;6.976;2022-08-11T14:12:02;18.95;;;18.25;;
22894;SDS011;11614;52.494;6.976;2022-08-11T14:14:58;16.65;;;15.85;;
22894;SDS011;11614;52.494;6.976;2022-08-11T14:17:25;14.27;;;13.57;;
22894;SDS011;11614;52.494;6.976;2022-08-11T14:19:52;11.77;;;11.23;;
22894;SDS011;11614;52.494;6.976;2022-08-11T14:22:19;21.02;;;20.13;;
22894;SDS011;11614;52.494;6.976;2022-08-11T14:24:46;18.33;;;17.50;;
22894;SDS011;11614;52.494;6.976;2022-08-11T14:27:13;15.60;;;14.80;;
22894;SDS011;11614;52.494;6.976;2022-08-11T14:29:40;17.70;;;16.80;;
22894;SDS011;11614;52.494;6.976;2022-08-11T14:32:08;19.15;;;18.25;;
22894;SDS011;11614;52.494;6.976;2022-08-11T14:34:36;24.52;;;23.42;;
22894;SDS011;11614;52.494;6.976;2022-08-11T14:37:07;12.50;;;12.00;;
22894;SDS011;11614;52.494;6.976;2022-08-11T14:39:39;17.40;;;16.60;;
22894;SDS011;11614;52.494;6.976;2022-08-11T14:42:06;14.32;;;13.73;;
22894;SDS011;11614;52.494;6.976;2022-08-11T14:44:55;13.65;;;13.10;;
22894;SDS011;11614;52.494;6.976;2022-08-11T14:47:40;19.48;;;18.67;;
22894;SDS011;11614;52.494;6.976;2022-08-11T14:50:09;19.23;;;18.42;;
22894;SDS011;11614;52.494;6.976;2022-08-11T14:52:48;18.52;;;17.70;;
22894;SDS011;11614;52.494;6.976;2022-08-11T14:55:14;46.90;;;45.10;;
22894;SDS011;11614;52.494;6.976;2022-08-11T14:58:00;16.65;;;15.85;;
22894;SDS011;11614;52.494;6.976;2022-08-11T15:00:26;22.90;;;21.70;;
22894;SDS011;11614;52.494;6.976;2022-08-11T15:02:53;10.13;;;9.50;;
22894;SDS011;11614;52.494;6.976;2022-08-11T15:05:34;15.25;;;14.57;;
22894;SDS011;11614;52.494;6.976;2022-08-11T15:08:03;20.75;;;19.85;;
22894;SDS011;11614;52.494;6.976;2022-08-11T15:10:30;14.93;;;14.23;;
22894;SDS011;11614;52.494;6.976;2022-08-11T15:12:56;16.48;;;15.68;;
22894;SDS011;11614;52.494;6.976;2022-08-11T15:15:23;36.45;;;35.00;;
22894;SDS011;11614;52.494;6.976;2022-08-11T15:18:10;26.02;;;25.00;;
22894;SDS011;11614;52.494;6.976;2022-08-11T15:20:39;27.00;;;25.67;;
22894;SDS011;11614;52.494;6.976;2022-08-11T15:23:23;17.25;;;16.52;;
22894;SDS011;11614;52.494;6.976;2022-08-11T15:26:12;32.80;;;31.45;;
22894;SDS011;11614;52.494;6.976;2022-08-11T15:28:47;24.67;;;23.67;;
22894;SDS011;11614;52.494;6.976;2022-08-11T15:31:52;20.10;;;19.20;;
22894;SDS011;11614;52.494;6.976;2022-08-11T15:34:37;18.40;;;17.60;;
22894;SDS011;11614;52.494;6.976;2022-08-11T15:37:23;15.18;;;14.52;;
22894;SDS011;11614;52.494;6.976;2022-08-11T15:40:01;18.58;;;17.27;;
22894;SDS011;11614;52.494;6.976;2022-08-11T15:45:52;22.02;;;20.98;;
22894;SDS011;11614;52.494;6.976;2022-08-11T15:51:00;18.92;;;17.92;;
22894;SDS011;11614;52.494;6.976;2022-08-11T15:53:36;36.95;;;35.38;;
22894;SDS011;11614;52.494;6.976;2022-08-11T15:56:05;27.33;;;26.23;;
22894;SDS011;11614;52.494;6.976;2022-08-11T15:58:33;13.65;;;12.90;;
22894;SDS011;11614;52.494;6.976;2022-08-11T16:01:19;9.43;;;8.93;;
22894;SDS011;11614;52.494;6.976;2022-08-11T16:04:09;26.50;;;25.42;;
22894;SDS011;11614;52.494;6.976;2022-08-11T16:06:36;20.88;;;19.98;;
22894;SDS011;11614;52.494;6.976;2022-08-11T16:09:04;23.45;;;22.45;;
22894;SDS011;11614;52.494;6.976;2022-08-11T16:11:33;20.08;;;19.17;;
22894;SDS011;11614;52.494;6.976;2022-08-11T16:14:01;26.10;;;25.08;;
22894;SDS011;11614;52.494;6.976;2022-08-11T16:16:46;14.80;;;13.95;;
22894;SDS011;11614;52.494;6.976;2022-08-11T16:19:12;16.35;;;15.65;;
22894;SDS011;11614;52.494;6.976;2022-08-11T16:21:40;21.92;;;20.85;;
22894;SDS011;11614;52.494;6.976;2022-08-11T16:24:09;11.77;;;11.07;;
22894;SDS011;11614;52.494;6.976;2022-08-11T16:26:36;12.07;;;11.48;;
22894;SDS011;11614;52.494;6.976;2022-08-11T16:29:03;10.30;;;9.82;;
22894;SDS011;11614;52.494;6.976;2022-08-11T16:31:30;11.68;;;11.15;;
22894;SDS011;11614;52.494;6.976;2022-08-11T16:33:57;10.88;;;10.27;;
22894;SDS011;11614;52.494;6.976;2022-08-11T16:36:24;13.38;;;12.80;;
22894;SDS011;11614;52.494;6.976;2022-08-11T16:39:10;14.27;;;13.50;;
22894;SDS011;11614;52.494;6.976;2022-08-11T16:41:37;9.70;;;9.20;;
22894;SDS011;11614;52.494;6.976;2022-08-11T16:44:24;17.70;;;17.00;;
22894;SDS011;11614;52.494;6.976;2022-08-11T16:47:12;11.57;;;11.05;;
22894;SDS011;11614;52.494;6.976;2022-08-11T16:49:44;15.18;;;14.38;;
22894;SDS011;11614;52.494;6.976;2022-08-11T16:52:11;14.85;;;14.25;;
22894;SDS011;11614;52.494;6.976;2022-08-11T16:54:38;10.38;;;9.77;;
22894;SDS011;11614;52.494;6.976;2022-08-11T16:57:09;9.52;;;9.13;;
22894;SDS011;11614;52.494;6.976;2022-08-11T16:59:55;9.07;;;8.65;;
22894;SDS011;11614;52.494;6.976;2022-08-11T17:02:23;9.45;;;8.95;;
22894;SDS011;11614;52.494;6.976;2022-08-11T17:05:14;7.28;;;6.88;;
22894;SDS011;11614;52.494;6.976;2022-08-11T17:08:00;9.90;;;9.38;;
22894;SDS011;11614;52.494;6.976;2022-08-11T17:10:49;13.20;;;12.55;;
22894;SDS011;11614;52.494;6.976;2022-08-11T17:13:36;8.98;;;8.57;;
22894;SDS011;11614;52.494;6.976;2022-08-11T17:16:04;9.30;;;8.80;;
22894;SDS011;11614;52.494;6.976;2022-08-11T17:18:34;12.38;;;11.77;;
22894;SDS011;11614;52.494;6.976;2022-08-11T17:21:28;9.43;;;9.02;;
22894;SDS011;11614;52.494;6.976;2022-08-11T17:23:59;7.35;;;6.88;;
22894;SDS011;11614;52.494;6.976;2022-08-11T17:26:33;9.13;;;8.70;;
22894;SDS011;11614;52.494;6.976;2022-08-11T17:30:05;8.55;;;8.05;;
22894;SDS011;11614;52.494;6.976;2022-08-11T17:32:07;6.63;;;6.18;;
22894;SDS011;11614;52.494;6.976;2022-08-11T17:34:55;6.28;;;5.80;;
22894;SDS011;11614;52.494;6.976;2022-08-11T17:37:41;7.63;;;7.05;;
22894;SDS011;11614;52.494;6.976;2022-08-11T17:40:09;9.60;;;9.10;;
22894;SDS011;11614;52.494;6.976;2022-08-11T17:42:36;6.97;;;6.57;;
22894;SDS011;11614;52.494;6.976;2022-08-11T17:45:21;7.93;;;7.50;;
22894;SDS011;11614;52.494;6.976;2022-08-11T17:48:06;9.05;;;8.55;;
22894;SDS011;11614;52.494;6.976;2022-08-11T17:50:56;8.15;;;7.75;;
22894;SDS011;11614;52.494;6.976;2022-08-11T17:53:24;6.80;;;6.40;;
22894;SDS011;11614;52.494;6.976;2022-08-11T17:56:09;10.98;;;10.38;;
22894;SDS011;11614;52.494;6.976;2022-08-11T17:58:59;8.02;;;7.63;;
22894;SDS011;11614;52.494;6.976;2022-08-11T18:01:44;7.72;;;7.22;;
22894;SDS011;11614;52.494;6.976;2022-08-11T18:04:11;10.38;;;9.77;;
22894;SDS011;11614;52.494;6.976;2022-08-11T18:06:38;5.93;;;5.47;;
22894;SDS011;11614;52.494;6.976;2022-08-11T18:09:11;15.15;;;14.35;;
22894;SDS011;11614;52.494;6.976;2022-08-11T18:11:56;22.20;;;21.25;;
22894;SDS011;11614;52.494;6.976;2022-08-11T18:14:47;11.45;;;10.90;;
22894;SDS011;11614;52.494;6.976;2022-08-11T18:17:32;11.05;;;10.55;;
22894;SDS011;11614;52.494;6.976;2022-08-11T18:20:17;8.80;;;8.30;;
22894;SDS011;11614;52.494;6.976;2022-08-11T18:23:03;15.75;;;15.05;;
22894;SDS011;11614;52.494;6.976;2022-08-11T18:25:48;14.93;;;14.13;;
22894;SDS011;11614;52.494;6.976;2022-08-11T18:28:38;13.88;;;13.18;;
22894;SDS011;11614;52.494;6.976;2022-08-11T18:31:22;12.18;;;11.38;;
22894;SDS011;11614;52.494;6.976;2022-08-11T18:34:09;13.23;;;12.43;;
22894;SDS011;11614;52.494;6.976;2022-08-11T18:37:01;16.30;;;15.30;;
22894;SDS011;11614;52.494;6.976;2022-08-11T18:39:46;9.13;;;8.52;;
22894;SDS011;11614;52.494;6.976;2022-08-11T18:42:32;9.10;;;8.48;;
22894;SDS011;11614;52.494;6.976;2022-08-11T18:45:18;9.77;;;9.27;;
22894;SDS011;11614;52.494;6.976;2022-08-11T18:48:05;8.98;;;8.57;;
22894;SDS011;11614;52.494;6.976;2022-08-11T18:50:52;7.40;;;7.00;;
22894;SDS011;11614;52.494;6.976;2022-08-11T18:53:38;11.45;;;10.75;;
22894;SDS011;11614;52.494;6.976;2022-08-11T18:56:24;14.55;;;13.65;;
22894;SDS011;11614;52.494;6.976;2022-08-11T18:59:10;26.90;;;25.65;;
22894;SDS011;11614;52.494;6.976;2022-08-11T19:01:55;17.58;;;16.67;;
22894;SDS011;11614;52.494;6.976;2022-08-11T19:04:41;11.48;;;10.68;;
22894;SDS011;11614;52.494;6.976;2022-08-11T19:07:26;9.05;;;8.50;;
22894;SDS011;11614;52.494;6.976;2022-08-11T19:10:12;15.60;;;14.65;;
22894;SDS011;11614;52.494;6.976;2022-08-11T19:12:57;8.02;;;7.50;;